sensor_id;sensor_type;location;lat;lon;timestamp;pressure;altitude;pressure_sealevel;temperature;humidity
59859;BME280;45734;53.648;9.566;2023-04-28T00:00:35;95230.72;;;-145.06;100.00
59859;BME280;45734;53.648;9.566;2023-04-28T00:05:35;95245.06;;;-145.06;100.00
59859;BME280;45734;53.648;9.566;2023-04-28T00:10:35;95224.59;;;-145.06;100.00
59859;BME280;45734;53.648;9.566;2023-04-28T00:15:36;95243.00;;;-145.06;100.00
59859;BME280;45734;53.648;9.566;2023-04-28T00:20:36;95255.28;;;-145.06;100.00
59859;BME280;45734;53.648;9.566;2023-04-28T00:25:36;95224.59;;;-145.06;100.00
59859;BME280;45734;53.648;9.566;2023-04-28T00:30:37;95238.91;;;-145.06;100.00
59859;BME280;45734;53.648;9.566;2023-04-28T00:35:37;95247.09;;;-145.06;100.00
59859;BME280;45734;53.648;9.566;2023-04-28T00:40:38;95271.66;;;-145.06;100.00
59859;BME280;45734;53.648;9.566;2023-04-28T00:45:39;95245.06;;;-145.06;100.00
59859;BME280;45734;53.648;9.566;2023-04-28T00:50:39;95249.16;;;-145.06;100.00
59859;BME280;45734;53.648;9.566;2023-04-28T00:55:41;95265.50;;;-145.06;100.00
59859;BME280;45734;53.648;9.566;2023-04-28T01:00:41;95245.06;;;-145.06;100.00
59859;BME280;45734;53.648;9.566;2023-04-28T01:05:41;95253.25;;;-145.06;100.00
59859;BME280;45734;53.648;9.566;2023-04-28T01:10:43;95277.78;;;-145.06;100.00
59859;BME280;45734;53.648;9.566;2023-04-28T01:15:43;95261.44;;;-145.06;100.00
59859;BME280;45734;53.648;9.566;2023-04-28T01:20:44;95300.31;;;-145.06;100.00
59859;BME280;45734;53.648;9.566;2023-04-28T01:25:44;95253.25;;;-145.06;100.00
59859;BME280;45734;53.648;9.566;2023-04-28T01:30:45;95247.09;;;-145.06;100.00
59859;BME280;45734;53.648;9.566;2023-04-28T01:35:45;95240.97;;;-145.06;100.00
59859;BME280;45734;53.648;9.566;2023-04-28T01:40:45;95220.50;;;-145.06;100.00
59859;BME280;45734;53.648;9.566;2023-04-28T01:45:45;95224.59;;;-145.06;100.00
59859;BME280;45734;53.648;9.566;2023-04-28T01:50:46;95236.88;;;-145.06;100.00
59859;BME280;45734;53.648;9.566;2023-04-28T01:55:46;95216.41;;;-145.06;100.00
59859;BME280;45734;53.648;9.566;2023-04-28T02:00:46;95238.91;;;-145.06;100.00
59859;BME280;45734;53.648;9.566;2023-04-28T02:05:46;95226.63;;;-145.06;100.00
59859;BME280;45734;53.648;9.566;2023-04-28T02:10:47;95224.59;;;-145.06;100.00
59859;BME280;45734;53.648;9.566;2023-04-28T02:15:47;95253.25;;;-145.06;100.00
59859;BME280;45734;53.648;9.566;2023-04-28T02:20:47;95285.97;;;-145.06;100.00
59859;BME280;45734;53.648;9.566;2023-04-28T02:25:48;95230.72;;;-145.06;100.00
59859;BME280;45734;53.648;9.566;2023-04-28T02:30:48;95277.78;;;-145.06;100.00
59859;BME280;45734;53.648;9.566;2023-04-28T02:35:57;95283.94;;;-145.06;100.00
59859;BME280;45734;53.648;9.566;2023-04-28T02:41:05;95261.44;;;-145.06;100.00
59859;BME280;45734;53.648;9.566;2023-04-28T02:46:05;95283.94;;;-145.06;100.00
59859;BME280;45734;53.648;9.566;2023-04-28T02:51:06;95269.59;;;-145.06;100.00
59859;BME280;45734;53.648;9.566;2023-04-28T02:56:06;95292.13;;;-145.06;100.00
59859;BME280;45734;53.648;9.566;2023-04-28T03:01:06;95298.25;;;-145.06;100.00
59859;BME280;45734;53.648;9.566;2023-04-28T03:06:07;95281.88;;;-145.06;100.00
59859;BME280;45734;53.648;9.566;2023-04-28T03:11:07;95269.59;;;-145.06;100.00
59859;BME280;45734;53.648;9.566;2023-04-28T03:16:07;95285.97;;;-145.06;100.00
59859;BME280;45734;53.648;9.566;2023-04-28T03:21:08;95308.50;;;-145.06;100.00
59859;BME280;45734;53.648;9.566;2023-04-28T03:26:08;95296.22;;;-145.06;100.00
59859;BME280;45734;53.648;9.566;2023-04-28T03:31:08;95318.72;;;-145.06;100.00
59859;BME280;45734;53.648;9.566;2023-04-28T03:36:09;95285.97;;;-145.06;100.00
59859;BME280;45734;53.648;9.566;2023-04-28T03:41:09;95294.16;;;-145.06;100.00
59859;BME280;45734;53.648;9.566;2023-04-28T03:46:09;95302.34;;;-145.06;100.00
59859;BME280;45734;53.648;9.566;2023-04-28T03:51:10;95265.50;;;-145.06;100.00
59859;BME280;45734;53.648;9.566;2023-04-28T03:56:10;95101.81;;;-145.06;100.00
59859;BME280;45734;53.648;9.566;2023-04-28T04:01:11;94700.81;;;-145.06;100.00
59859;BME280;45734;53.648;9.566;2023-04-28T04:06:12;94385.75;;;-145.06;100.00
59859;BME280;45734;53.648;9.566;2023-04-28T04:11:12;94263.00;;;-145.06;100.00
59859;BME280;45734;53.648;9.566;2023-04-28T04:16:13;94087.06;;;-145.06;100.00
59859;BME280;45734;53.648;9.566;2023-04-28T04:21:14;93958.22;;;-145.06;100.00
59859;BME280;45734;53.648;9.566;2023-04-28T04:26:15;93790.47;;;-145.06;100.00
59859;BME280;45734;53.648;9.566;2023-04-28T04:31:15;93753.66;;;-145.06;100.00
59859;BME280;45734;53.648;9.566;2023-04-28T04:36:16;93622.75;;;-145.06;100.00
59859;BME280;45734;53.648;9.566;2023-04-28T04:41:17;93485.72;;;-145.06;100.00
59859;BME280;45734;53.648;9.566;2023-04-28T04:46:19;93428.44;;;-145.06;100.00
59859;BME280;45734;53.648;9.566;2023-04-28T04:51:20;93281.19;;;-145.06;99.93
59859;BME280;45734;53.648;9.566;2023-04-28T04:56:20;93289.38;;;-145.06;92.89
59859;BME280;45734;53.648;9.566;2023-04-28T05:01:20;93381.41;;;-145.06;88.11
59859;BME280;45734;53.648;9.566;2023-04-28T05:06:21;93336.41;;;-145.06;87.23
59859;BME280;45734;53.648;9.566;2023-04-28T05:11:21;93283.22;;;-145.06;83.94
59859;BME280;45734;53.648;9.566;2023-04-28T05:16:21;93221.88;;;-145.06;82.13
59859;BME280;45734;53.648;9.566;2023-04-28T05:21:22;93211.66;;;-145.06;79.93
59859;BME280;45734;53.648;9.566;2023-04-28T05:26:22;93238.25;;;-145.06;79.92
59859;BME280;45734;53.648;9.566;2023-04-28T05:31:22;93279.16;;;-145.06;81.89
59859;BME280;45734;53.648;9.566;2023-04-28T05:36:23;93125.75;;;-145.06;79.43
59859;BME280;45734;53.648;9.566;2023-04-28T05:41:23;93062.34;;;-145.06;76.78
59859;BME280;45734;53.648;9.566;2023-04-28T05:46:24;93060.31;;;-145.06;74.12
59859;BME280;45734;53.648;9.566;2023-04-28T05:51:24;93097.13;;;-145.06;71.67
59859;BME280;45734;53.648;9.566;2023-04-28T05:56:26;93113.50;;;-145.06;71.10
59859;BME280;45734;53.648;9.566;2023-04-28T06:01:26;93082.81;;;-145.06;68.69
59859;BME280;45734;53.648;9.566;2023-04-28T06:06:26;93072.59;;;-145.06;69.75
59859;BME280;45734;53.648;9.566;2023-04-28T06:11:27;93062.34;;;-145.06;65.58
59859;BME280;45734;53.648;9.566;2023-04-28T06:16:27;93158.47;;;-145.06;64.83
59859;BME280;45734;53.648;9.566;2023-04-28T06:21:28;93152.34;;;-145.06;70.55
59859;BME280;45734;53.648;9.566;2023-04-28T06:26:28;93082.81;;;-145.06;68.02
59859;BME280;45734;53.648;9.566;2023-04-28T06:31:28;93219.84;;;-145.06;67.18
59859;BME280;45734;53.648;9.566;2023-04-28T06:36:28;93256.66;;;-145.06;68.62
59859;BME280;45734;53.648;9.566;2023-04-28T06:41:29;93178.94;;;-145.06;68.40
59859;BME280;45734;53.648;9.566;2023-04-28T06:46:29;92994.88;;;-145.06;63.35
59859;BME280;45734;53.648;9.566;2023-04-28T06:51:30;93011.22;;;-145.06;60.60
59859;BME280;45734;53.648;9.566;2023-04-28T06:56:34;92947.84;;;-145.06;59.00
59859;BME280;45734;53.648;9.566;2023-04-28T07:01:35;93027.59;;;-145.06;56.40
59859;BME280;45734;53.648;9.566;2023-04-28T07:06:35;92956.03;;;-145.06;54.52
59859;BME280;45734;53.648;9.566;2023-04-28T07:11:36;92778.09;;;-145.06;50.58
59859;BME280;45734;53.648;9.566;2023-04-28T07:16:36;92735.16;;;-145.06;48.97
59859;BME280;45734;53.648;9.566;2023-04-28T07:21:36;92737.22;;;-145.06;47.86
59859;BME280;45734;53.648;9.566;2023-04-28T07:26:37;92802.63;;;-145.06;48.79
59859;BME280;45734;53.648;9.566;2023-04-28T07:31:37;92792.41;;;-145.06;46.40
59859;BME280;45734;53.648;9.566;2023-04-28T07:36:38;92827.19;;;-145.06;46.36
59859;BME280;45734;53.648;9.566;2023-04-28T07:41:38;92741.28;;;-145.06;44.12
59859;BME280;45734;53.648;9.566;2023-04-28T07:46:38;92741.28;;;-145.06;41.75
59859;BME280;45734;53.648;9.566;2023-04-28T07:51:39;92839.44;;;-145.06;43.49
59859;BME280;45734;53.648;9.566;2023-04-28T07:56:39;93080.75;;;-145.06;44.78
59859;BME280;45734;53.648;9.566;2023-04-28T08:01:40;93244.38;;;-145.06;45.85
59859;BME280;45734;53.648;9.566;2023-04-28T08:06:42;93221.88;;;-145.06;45.28
59859;BME280;45734;53.648;9.566;2023-04-28T08:11:42;93133.94;;;-145.06;44.41
59859;BME280;45734;53.648;9.566;2023-04-28T08:16:42;93232.09;;;-145.06;45.20
59859;BME280;45734;53.648;9.566;2023-04-28T08:21:42;93146.22;;;-145.06;44.01
59859;BME280;45734;53.648;9.566;2023-04-28T08:26:43;93228.00;;;-145.06;44.70
59859;BME280;45734;53.648;9.566;2023-04-28T08:31:43;93256.66;;;-145.06;46.45
59859;BME280;45734;53.648;9.566;2023-04-28T08:36:44;93281.19;;;-145.06;47.01
59859;BME280;45734;53.648;9.566;2023-04-28T08:41:45;93244.38;;;-145.06;46.73
59859;BME280;45734;53.648;9.566;2023-04-28T08:46:45;93238.25;;;-145.06;46.95
59859;BME280;45734;53.648;9.566;2023-04-28T08:51:55;93178.94;;;-145.06;46.47
59859;BME280;45734;53.648;9.566;2023-04-28T08:56:58;93162.56;;;-145.06;46.71
59859;BME280;45734;53.648;9.566;2023-04-28T09:01:58;93088.94;;;-145.06;45.34
59859;BME280;45734;53.648;9.566;2023-04-28T09:06:59;93225.97;;;-145.06;46.35
59859;BME280;45734;53.648;9.566;2023-04-28T09:12:01;93242.34;;;-145.06;45.74
59859;BME280;45734;53.648;9.566;2023-04-28T09:17:09;93244.38;;;-145.06;45.95
59859;BME280;45734;53.648;9.566;2023-04-28T09:22:10;93225.97;;;-145.06;46.91
59859;BME280;45734;53.648;9.566;2023-04-28T09:27:11;93172.78;;;-145.06;46.16
59859;BME280;45734;53.648;9.566;2023-04-28T09:32:12;93156.44;;;-145.06;48.04
59859;BME280;45734;53.648;9.566;2023-04-28T09:37:23;93041.91;;;-145.06;46.87
59859;BME280;45734;53.648;9.566;2023-04-28T09:42:43;93027.59;;;-145.06;45.74
59859;BME280;45734;53.648;9.566;2023-04-28T09:47:45;93146.22;;;-145.06;45.33
59859;BME280;45734;53.648;9.566;2023-04-28T09:52:56;93146.22;;;-145.06;45.33
59859;BME280;45734;53.648;9.566;2023-04-28T09:58:00;93829.34;;;-145.06;45.79
59859;BME280;45734;53.648;9.566;2023-04-28T10:03:06;95263.47;;;-145.06;48.55
59859;BME280;45734;53.648;9.566;2023-04-28T10:08:07;95040.44;;;-145.06;46.18
59859;BME280;45734;53.648;9.566;2023-04-28T10:13:08;93620.72;;;-145.06;46.65
59859;BME280;45734;53.648;9.566;2023-04-28T10:18:10;93522.53;;;-145.06;48.70
59859;BME280;45734;53.648;9.566;2023-04-28T10:28:30;93410.03;;;-145.06;47.10
59859;BME280;45734;53.648;9.566;2023-04-28T10:33:30;93393.69;;;-145.06;47.86
59859;BME280;45734;53.648;9.566;2023-04-28T10:38:31;93318.00;;;-145.06;47.82
59859;BME280;45734;53.648;9.566;2023-04-28T10:43:33;93309.81;;;-145.06;45.85
59859;BME280;45734;53.648;9.566;2023-04-28T10:58:55;93651.38;;;-145.06;47.27
59859;BME280;45734;53.648;9.566;2023-04-28T11:03:57;94340.75;;;-145.06;46.63
59859;BME280;45734;53.648;9.566;2023-04-28T11:19:30;93516.41;;;-145.06;47.37
59859;BME280;45734;53.648;9.566;2023-04-28T11:24:31;93563.44;;;-145.06;46.69
59859;BME280;45734;53.648;9.566;2023-04-28T11:29:32;93635.03;;;-145.06;45.41
59859;BME280;45734;53.648;9.566;2023-04-28T11:34:33;93872.28;;;-145.06;46.91
59859;BME280;45734;53.648;9.566;2023-04-28T11:39:33;93761.84;;;-145.06;47.85
59859;BME280;45734;53.648;9.566;2023-04-28T11:44:34;93624.78;;;-145.06;47.36
59859;BME280;45734;53.648;9.566;2023-04-28T11:49:43;93804.78;;;-145.06;47.31
59859;BME280;45734;53.648;9.566;2023-04-28T11:54:43;93696.38;;;-145.06;46.97
59859;BME280;45734;53.648;9.566;2023-04-28T11:59:43;94078.91;;;-145.06;46.87
59859;BME280;45734;53.648;9.566;2023-04-28T12:04:45;93731.16;;;-145.06;47.12
59859;BME280;45734;53.648;9.566;2023-04-28T12:15:06;93774.13;;;-145.06;48.52
59859;BME280;45734;53.648;9.566;2023-04-28T12:20:08;93872.28;;;-145.06;47.37
59859;BME280;45734;53.648;9.566;2023-04-28T12:25:12;93876.38;;;-145.06;48.99
59859;BME280;45734;53.648;9.566;2023-04-28T12:35:27;94072.75;;;-145.06;48.08
59859;BME280;45734;53.648;9.566;2023-04-28T12:40:27;94203.69;;;-145.06;49.32
59859;BME280;45734;53.648;9.566;2023-04-28T12:45:28;94091.16;;;-145.06;49.38
59859;BME280;45734;53.648;9.566;2023-04-28T12:50:29;94040.03;;;-145.06;49.21
59859;BME280;45734;53.648;9.566;2023-04-28T12:55:32;94029.81;;;-145.06;49.29
59859;BME280;45734;53.648;9.566;2023-04-28T13:00:32;94113.66;;;-145.06;50.31
59859;BME280;45734;53.648;9.566;2023-04-28T13:05:32;94903.34;;;-145.06;49.01
59859;BME280;45734;53.648;9.566;2023-04-28T13:10:34;95711.63;;;-145.06;50.09
59859;BME280;45734;53.648;9.566;2023-04-28T13:15:34;95509.03;;;-145.06;51.36
59859;BME280;45734;53.648;9.566;2023-04-28T13:20:35;94872.66;;;-145.06;51.18
59859;BME280;45734;53.648;9.566;2023-04-28T13:25:36;94801.06;;;-145.06;52.87
59859;BME280;45734;53.648;9.566;2023-04-28T13:30:36;94518.72;;;-145.06;54.81
59859;BME280;45734;53.648;9.566;2023-04-28T13:35:36;94369.38;;;-145.06;54.34
59859;BME280;45734;53.648;9.566;2023-04-28T13:40:37;94686.47;;;-145.06;55.60
59859;BME280;45734;53.648;9.566;2023-04-28T13:45:37;94790.81;;;-145.06;54.57
59859;BME280;45734;53.648;9.566;2023-04-28T13:50:37;94766.28;;;-145.06;54.86
59859;BME280;45734;53.648;9.566;2023-04-28T13:55:38;94962.69;;;-145.06;56.45
59859;BME280;45734;53.648;9.566;2023-04-28T14:00:38;94731.50;;;-145.06;58.18
59859;BME280;45734;53.648;9.566;2023-04-28T14:05:38;94766.28;;;-145.06;58.67
59859;BME280;45734;53.648;9.566;2023-04-28T14:10:39;94897.22;;;-145.06;60.82
59859;BME280;45734;53.648;9.566;2023-04-28T14:15:39;94948.38;;;-145.06;63.37
59859;BME280;45734;53.648;9.566;2023-04-28T14:20:40;94946.31;;;-145.06;64.24
59859;BME280;45734;53.648;9.566;2023-04-28T14:25:41;94999.53;;;-145.06;69.00
59859;BME280;45734;53.648;9.566;2023-04-28T14:30:41;96000.16;;;-145.06;67.77
59859;BME280;45734;53.648;9.566;2023-04-28T14:35:42;94547.38;;;-145.06;70.70
59859;BME280;45734;53.648;9.566;2023-04-28T14:40:42;94590.31;;;-145.06;69.34
59859;BME280;45734;53.648;9.566;2023-04-28T14:45:43;96102.50;;;-145.06;68.18
59859;BME280;45734;53.648;9.566;2023-04-28T14:50:43;94905.41;;;-145.06;67.75
59859;BME280;45734;53.648;9.566;2023-04-28T14:55:45;94927.91;;;-145.06;70.19
59859;BME280;45734;53.648;9.566;2023-04-28T15:00:45;94858.34;;;-145.06;69.25
59859;BME280;45734;53.648;9.566;2023-04-28T15:05:45;94829.69;;;-145.06;69.23
59859;BME280;45734;53.648;9.566;2023-04-28T15:10:46;94614.88;;;-145.06;70.58
59859;BME280;45734;53.648;9.566;2023-04-28T15:15:46;94815.38;;;-145.06;69.46
59859;BME280;45734;53.648;9.566;2023-04-28T15:20:48;94353.00;;;-145.06;69.38
59859;BME280;45734;53.648;9.566;2023-04-28T15:25:48;94279.38;;;-145.06;67.91
59859;BME280;45734;53.648;9.566;2023-04-28T15:30:53;94179.13;;;-145.06;68.54
59859;BME280;45734;53.648;9.566;2023-04-28T15:35:53;94234.38;;;-145.06;67.90
59859;BME280;45734;53.648;9.566;2023-04-28T15:40:53;94819.47;;;-145.06;69.49
59859;BME280;45734;53.648;9.566;2023-04-28T15:45:53;94923.81;;;-145.06;73.63
59859;BME280;45734;53.648;9.566;2023-04-28T15:50:54;94876.75;;;-145.06;73.58
59859;BME280;45734;53.648;9.566;2023-04-28T15:55:55;94856.28;;;-145.06;71.00
59859;BME280;45734;53.648;9.566;2023-04-28T16:00:55;95099.78;;;-145.06;71.33
59859;BME280;45734;53.648;9.566;2023-04-28T16:05:58;95171.41;;;-145.06;73.31
59859;BME280;45734;53.648;9.566;2023-04-28T16:11:00;95077.28;;;-145.06;74.03
59859;BME280;45734;53.648;9.566;2023-04-28T16:16:03;94956.56;;;-145.06;76.08
59859;BME280;45734;53.648;9.566;2023-04-28T16:21:03;95128.44;;;-145.06;81.14
59859;BME280;45734;53.648;9.566;2023-04-28T16:26:03;95169.34;;;-145.06;89.55
59859;BME280;45734;53.648;9.566;2023-04-28T16:31:04;95263.47;;;-145.06;88.86
59859;BME280;45734;53.648;9.566;2023-04-28T16:36:04;95198.00;;;-145.06;93.10
59859;BME280;45734;53.648;9.566;2023-04-28T16:41:05;95349.41;;;-145.06;99.14
59859;BME280;45734;53.648;9.566;2023-04-28T16:46:05;95243.00;;;-145.06;100.00
59859;BME280;45734;53.648;9.566;2023-04-28T16:51:09;95384.19;;;-145.06;100.00
59859;BME280;45734;53.648;9.566;2023-04-28T16:56:10;95449.69;;;-145.06;100.00
59859;BME280;45734;53.648;9.566;2023-04-28T17:01:10;95682.97;;;-145.06;100.00
59859;BME280;45734;53.648;9.566;2023-04-28T17:06:11;95906.03;;;-145.06;100.00
59859;BME280;45734;53.648;9.566;2023-04-28T17:11:15;95529.47;;;-145.06;100.00
59859;BME280;45734;53.648;9.566;2023-04-28T17:16:15;95822.13;;;-145.06;100.00
59859;BME280;45734;53.648;9.566;2023-04-28T17:21:15;96505.72;;;-145.06;100.00
59859;BME280;45734;53.648;9.566;2023-04-28T17:26:16;96540.50;;;-145.06;100.00
59859;BME280;45734;53.648;9.566;2023-04-28T17:31:17;95760.72;;;-145.06;100.00
59859;BME280;45734;53.648;9.566;2023-04-28T17:36:18;96405.41;;;-145.06;100.00
59859;BME280;45734;53.648;9.566;2023-04-28T17:41:18;96274.41;;;-145.06;100.00
59859;BME280;45734;53.648;9.566;2023-04-28T17:46:19;95648.19;;;-145.06;100.00
59859;BME280;45734;53.648;9.566;2023-04-28T17:51:20;95699.34;;;-145.06;100.00
59859;BME280;45734;53.648;9.566;2023-04-28T17:56:20;95648.19;;;-145.06;100.00
59859;BME280;45734;53.648;9.566;2023-04-28T18:01:22;95670.69;;;-145.06;100.00
59859;BME280;45734;53.648;9.566;2023-04-28T18:06:22;95734.13;;;-145.06;100.00
59859;BME280;45734;53.648;9.566;2023-04-28T18:11:23;95689.09;;;-145.06;100.00
59859;BME280;45734;53.648;9.566;2023-04-28T18:16:24;95719.81;;;-145.06;100.00
59859;BME280;45734;53.648;9.566;2023-04-28T18:21:25;95756.63;;;-145.06;100.00
59859;BME280;45734;53.648;9.566;2023-04-28T18:26:25;95813.94;;;-145.06;100.00
59859;BME280;45734;53.648;9.566;2023-04-28T18:31:25;95736.16;;;-145.06;100.00
59859;BME280;45734;53.648;9.566;2023-04-28T18:36:26;95768.91;;;-145.06;100.00
59859;BME280;45734;53.648;9.566;2023-04-28T18:41:26;95705.47;;;-145.06;100.00
59859;BME280;45734;53.648;9.566;2023-04-28T18:46:27;95709.56;;;-145.06;100.00
59859;BME280;45734;53.648;9.566;2023-04-28T18:51:28;95703.44;;;-145.06;100.00
59859;BME280;45734;53.648;9.566;2023-04-28T18:56:28;95783.25;;;-145.06;100.00
59859;BME280;45734;53.648;9.566;2023-04-28T19:01:29;95691.16;;;-145.06;100.00
59859;BME280;45734;53.648;9.566;2023-04-28T19:06:29;95740.25;;;-145.06;100.00
59859;BME280;45734;53.648;9.566;2023-04-28T19:11:29;95736.16;;;-145.06;100.00
59859;BME280;45734;53.648;9.566;2023-04-28T19:16:30;95775.06;;;-145.06;100.00
59859;BME280;45734;53.648;9.566;2023-04-28T19:21:33;95758.69;;;-145.06;100.00
59859;BME280;45734;53.648;9.566;2023-04-28T19:26:33;95807.78;;;-145.06;100.00
59859;BME280;45734;53.648;9.566;2023-04-28T19:31:34;95815.97;;;-145.06;100.00
59859;BME280;45734;53.648;9.566;2023-04-28T19:36:34;95920.34;;;-145.06;100.00
59859;BME280;45734;53.648;9.566;2023-04-28T19:41:35;95863.06;;;-145.06;100.00
59859;BME280;45734;53.648;9.566;2023-04-28T19:46:35;95850.78;;;-145.06;100.00
59859;BME280;45734;53.648;9.566;2023-04-28T19:51:36;95863.06;;;-145.06;100.00
59859;BME280;45734;53.648;9.566;2023-04-28T19:56:37;95887.63;;;-145.06;100.00
59859;BME280;45734;53.648;9.566;2023-04-28T20:01:37;95891.69;;;-145.06;100.00
59859;BME280;45734;53.648;9.566;2023-04-28T20:06:40;95891.69;;;-145.06;100.00
59859;BME280;45734;53.648;9.566;2023-04-28T20:11:41;95928.53;;;-145.06;100.00
59859;BME280;45734;53.648;9.566;2023-04-28T20:16:42;95963.34;;;-145.06;100.00
59859;BME280;45734;53.648;9.566;2023-04-28T20:21:43;95946.97;;;-145.06;100.00
59859;BME280;45734;53.648;9.566;2023-04-28T20:26:43;95977.66;;;-145.06;100.00
59859;BME280;45734;53.648;9.566;2023-04-28T20:31:44;96002.22;;;-145.06;100.00
59859;BME280;45734;53.648;9.566;2023-04-28T20:36:44;96020.63;;;-145.06;100.00
59859;BME280;45734;53.648;9.566;2023-04-28T20:41:44;96018.59;;;-145.06;100.00
59859;BME280;45734;53.648;9.566;2023-04-28T20:46:45;96016.53;;;-145.06;100.00
59859;BME280;45734;53.648;9.566;2023-04-28T20:51:45;96077.94;;;-145.06;100.00
59859;BME280;45734;53.648;9.566;2023-04-28T20:56:45;96120.91;;;-145.06;100.00
59859;BME280;45734;53.648;9.566;2023-04-28T21:01:46;96067.72;;;-145.06;100.00
59859;BME280;45734;53.648;9.566;2023-04-28T21:06:49;96092.25;;;-145.06;100.00
59859;BME280;45734;53.648;9.566;2023-04-28T21:11:50;96110.69;;;-145.06;100.00
59859;BME280;45734;53.648;9.566;2023-04-28T21:16:51;96098.41;;;-145.06;100.00
59859;BME280;45734;53.648;9.566;2023-04-28T21:21:51;96129.09;;;-145.06;100.00
59859;BME280;45734;53.648;9.566;2023-04-28T21:26:51;96133.19;;;-145.06;100.00
59859;BME280;45734;53.648;9.566;2023-04-28T21:31:52;96161.84;;;-145.06;100.00
59859;BME280;45734;53.648;9.566;2023-04-28T21:36:52;96172.09;;;-145.06;100.00
59859;BME280;45734;53.648;9.566;2023-04-28T21:41:52;96186.41;;;-145.06;100.00
59859;BME280;45734;53.648;9.566;2023-04-28T21:46:53;96225.31;;;-145.06;100.00
59859;BME280;45734;53.648;9.566;2023-04-28T21:51:53;96243.72;;;-145.06;100.00
59859;BME280;45734;53.648;9.566;2023-04-28T21:56:53;96215.06;;;-145.06;100.00
59859;BME280;45734;53.648;9.566;2023-04-28T22:01:54;96215.06;;;-145.06;100.00
59859;BME280;45734;53.648;9.566;2023-04-28T22:06:55;96256.00;;;-145.06;100.00
59859;BME280;45734;53.648;9.566;2023-04-28T22:11:55;96348.09;;;-145.06;100.00
59859;BME280;45734;53.648;9.566;2023-04-28T22:16:55;96286.69;;;-145.06;100.00
59859;BME280;45734;53.648;9.566;2023-04-28T22:21:56;96278.50;;;-145.06;100.00
59859;BME280;45734;53.648;9.566;2023-04-28T22:26:56;96268.28;;;-145.06;100.00
59859;BME280;45734;53.648;9.566;2023-04-28T22:31:57;96346.06;;;-145.06;100.00
59859;BME280;45734;53.648;9.566;2023-04-28T22:36:57;96360.38;;;-145.06;100.00
59859;BME280;45734;53.648;9.566;2023-04-28T22:41:58;96321.50;;;-145.06;100.00
59859;BME280;45734;53.648;9.566;2023-04-28T22:46:58;96337.88;;;-145.06;100.00
59859;BME280;45734;53.648;9.566;2023-04-28T22:51:59;96333.78;;;-145.06;100.00
59859;BME280;45734;53.648;9.566;2023-04-28T22:56:59;96358.34;;;-145.06;100.00
59859;BME280;45734;53.648;9.566;2023-04-28T23:01:59;96344.00;;;-145.06;100.00
59859;BME280;45734;53.648;9.566;2023-04-28T23:07:01;96331.72;;;-145.06;100.00
59859;BME280;45734;53.648;9.566;2023-04-28T23:12:02;96341.97;;;-145.06;100.00
59859;BME280;45734;53.648;9.566;2023-04-28T23:17:02;96346.06;;;-145.06;100.00
59859;BME280;45734;53.648;9.566;2023-04-28T23:22:06;96368.56;;;-145.06;100.00
59859;BME280;45734;53.648;9.566;2023-04-28T23:27:07;96393.13;;;-145.06;100.00
59859;BME280;45734;53.648;9.566;2023-04-28T23:32:08;96356.28;;;-145.06;100.00
59859;BME280;45734;53.648;9.566;2023-04-28T23:37:08;96366.53;;;-145.06;100.00
59859;BME280;45734;53.648;9.566;2023-04-28T23:42:09;96374.72;;;-145.06;100.00
59859;BME280;45734;53.648;9.566;2023-04-28T23:47:09;96397.22;;;-145.06;100.00
59859;BME280;45734;53.648;9.566;2023-04-28T23:52:10;96407.47;;;-145.06;100.00
59859;BME280;45734;53.648;9.566;2023-04-28T23:57:11;96380.84;;;-145.06;100.00
